»·PEaware :: UAL3812 KLAS-KABQ

UAL3812 :: KLAS-KABQ

FLIGHT INFORMATION

Flight Status: Arrived
Operator:
United Airlines
More flights by this operator :: More flights under this callsign
Pilot: Utku A. (15598)
Aircraft: BOEING 737-300
(B733)
More flights by this aircraft type
Origin: KLAS McCarran Intl
United States
Destination: KABQ Albuquerque Intl Sunport
United States
More flights between these airports :: More routes between these airports
Route: COWBY8 GUP LOWBO3
File this flight plan on PilotEdge
Remarks:
Altitude:
(Current/Filed)
37,000ft
Speed:
(Current/Filed)
425kts
Departed: 01-Aug-18 06:58 PM
Arrived: 01-Aug-18 08:08 PM
Distance/Time
Traveled:
421nm/1:09
Distance/Time
To Go:
Arrived

Flight Plot

Page will automatically refresh every two minutes.

Flight plan parsing failed; only flown route is shown


Map Options




Map Legend


Flown Route
Filed Route
Departure Airport
Arrival Airport
Navaid (VOR, NDB)
Fix

Horizontal Profiles

Position Reports

Time Latitude Longitude Heading Altitude Ground
Speed
01-Aug-18 18:24 36.082409 -115.152920 357 2112ft 0kts
01-Aug-18 18:25 36.082409 -115.152920 357 2112ft 0kts
01-Aug-18 18:26 36.082409 -115.152920 357 2112ft 0kts
01-Aug-18 18:27 36.082409 -115.152920 357 2112ft 0kts
01-Aug-18 18:28 36.082409 -115.152920 357 2112ft 0kts
01-Aug-18 18:29 36.082409 -115.152920 357 2112ft 0kts
01-Aug-18 18:30 36.082409 -115.152920 357 2112ft 0kts
01-Aug-18 18:31 36.082409 -115.152920 357 2112ft 0kts
01-Aug-18 18:32 36.082409 -115.152920 357 2112ft 0kts
01-Aug-18 18:33 36.082409 -115.152920 357 2112ft 0kts
01-Aug-18 18:34 36.082409 -115.152920 357 2112ft 0kts
01-Aug-18 18:35 36.082409 -115.152920 357 2112ft 0kts
01-Aug-18 18:36 36.082409 -115.152920 357 2112ft 0kts
01-Aug-18 18:37 36.082409 -115.152920 357 2112ft 0kts
01-Aug-18 18:38 36.082409 -115.152920 357 2112ft 0kts
01-Aug-18 18:39 36.082409 -115.152920 357 2112ft 0kts
01-Aug-18 18:40 36.082409 -115.152920 357 2112ft 0kts
01-Aug-18 18:41 36.082409 -115.152920 357 2112ft 0kts
01-Aug-18 18:42 36.082409 -115.152920 357 2112ft 0kts
01-Aug-18 18:43 36.082409 -115.152920 357 2112ft 0kts
01-Aug-18 18:44 36.082409 -115.152920 357 2112ft 0kts
01-Aug-18 18:45 36.082081 -115.152775 312 2113ft 2kts
01-Aug-18 18:46 36.082018 -115.152209 246 2111ft 1kts
01-Aug-18 18:47 36.082021 -115.152202 246 2111ft 0kts
01-Aug-18 18:48 36.082021 -115.152202 246 2111ft 0kts
01-Aug-18 18:49 36.082021 -115.152202 246 2111ft 0kts
01-Aug-18 18:50 36.081413 -115.152499 184 2114ft 10kts
01-Aug-18 18:51 36.081646 -115.154944 298 2120ft 4kts
01-Aug-18 18:52 36.084826 -115.156826 334 2121ft 17kts
01-Aug-18 18:53 36.089278 -115.156542 23 2108ft 18kts
01-Aug-18 18:54 36.094621 -115.153581 22 2086ft 19kts
01-Aug-18 18:55 36.097367 -115.152066 10 2077ft 3kts
01-Aug-18 18:56 36.097925 -115.152316 306 2076ft 0kts
01-Aug-18 18:57 36.097975 -115.152418 298 2076ft 0kts
01-Aug-18 18:58 36.097221 -115.154328 204 2083ft 39kts
01-Aug-18 18:59 36.062849 -115.172086 204 2947ft 176kts
01-Aug-18 19:00 36.018352 -115.200117 212 5074ft 202kts
01-Aug-18 19:01 35.987419 -115.262939 247 7139ft 244kts
01-Aug-18 19:02 35.928932 -115.295748 161 9308ft 276kts
01-Aug-18 19:03 35.862256 -115.239416 124 11175ft 318kts
01-Aug-18 19:04 35.833785 -115.126139 108 13060ft 360kts
01-Aug-18 19:05 35.827675 -115.002413 84 15330ft 380kts
01-Aug-18 19:06 35.839919 -114.871227 84 17535ft 394kts
01-Aug-18 19:07 35.852261 -114.735151 84 19720ft 405kts
01-Aug-18 19:08 35.864801 -114.594986 84 21743ft 419kts
01-Aug-18 19:09 35.877506 -114.451041 84 23609ft 431kts
01-Aug-18 19:10 35.890361 -114.303245 84 25216ft 444kts
01-Aug-18 19:11 35.903419 -114.150892 84 26821ft 453kts
01-Aug-18 19:12 35.915953 -114.002517 84 28322ft 461kts
01-Aug-18 19:13 35.916595 -113.847009 103 30282ft 454kts
01-Aug-18 19:14 35.890993 -113.694888 101 31978ft 452kts
01-Aug-18 19:15 35.867141 -113.543413 101 33499ft 450kts
01-Aug-18 19:16 35.843170 -113.392489 101 34840ft 448kts
01-Aug-18 19:17 35.819354 -113.243480 101 35935ft 446kts
01-Aug-18 19:18 35.795371 -113.094938 101 36949ft 443kts
01-Aug-18 19:19 35.771244 -112.946755 101 37349ft 449kts
01-Aug-18 19:20 35.746439 -112.795621 100 37346ft 450kts
01-Aug-18 19:21 35.721984 -112.647828 100 37363ft 445kts
01-Aug-18 19:22 35.701250 -112.499936 91 37339ft 440kts
01-Aug-18 19:23 35.697550 -112.349482 90 37350ft 442kts
01-Aug-18 19:24 35.694373 -112.199742 90 37345ft 442kts
01-Aug-18 19:25 35.685928 -112.048959 92 37346ft 442kts
01-Aug-18 19:26 35.678011 -111.898989 92 37345ft 442kts
01-Aug-18 19:27 35.670892 -111.766758 92 37357ft 442kts
01-Aug-18 19:28 35.662643 -111.616850 92 37390ft 441kts
01-Aug-18 19:29 35.654214 -111.467019 92 37399ft 441kts
01-Aug-18 19:30 35.645749 -111.319657 93 37354ft 441kts
01-Aug-18 19:31 35.636952 -111.169797 93 37273ft 442kts
01-Aug-18 19:32 35.627914 -111.019294 93 37213ft 440kts
01-Aug-18 19:33 35.618910 -110.871939 94 37212ft 435kts
01-Aug-18 19:34 35.609656 -110.723863 94 37211ft 436kts
01-Aug-18 19:35 35.600194 -110.575671 94 37212ft 436kts
01-Aug-18 19:36 35.590600 -110.427944 94 37208ft 435kts
01-Aug-18 19:37 35.580986 -110.282278 94 37205ft 435kts
01-Aug-18 19:38 35.571047 -110.134746 94 37216ft 436kts
01-Aug-18 19:39 35.560889 -109.986606 94 37257ft 436kts
01-Aug-18 19:40 35.550500 -109.838385 94 37295ft 436kts
01-Aug-18 19:41 35.539995 -109.690260 94 37296ft 437kts
01-Aug-18 19:42 35.529247 -109.541860 94 37290ft 437kts
01-Aug-18 19:43 35.518375 -109.393683 94 37291ft 437kts
01-Aug-18 19:44 35.507443 -109.247390 95 37296ft 437kts
01-Aug-18 19:45 35.496246 -109.099864 94 37089ft 443kts
01-Aug-18 19:46 35.484716 -108.950767 93 35212ft 438kts
01-Aug-18 19:47 35.477665 -108.802116 86 33159ft 441kts
01-Aug-18 19:48 35.481163 -108.652460 85 30995ft 443kts
01-Aug-18 19:49 35.484410 -108.503118 85 29053ft 431kts
01-Aug-18 19:50 35.487241 -108.357687 89 27558ft 424kts
01-Aug-18 19:51 35.478303 -108.218932 92 26062ft 414kts
01-Aug-18 19:52 35.469310 -108.080156 92 24642ft 406kts
01-Aug-18 19:53 35.460371 -107.943933 92 23248ft 397kts
01-Aug-18 19:54 35.451470 -107.810571 92 21855ft 389kts
01-Aug-18 19:55 35.443067 -107.680301 91 20467ft 381kts
01-Aug-18 19:56 35.435100 -107.552173 91 19074ft 373kts
01-Aug-18 19:57 35.427226 -107.427362 91 17687ft 365kts
01-Aug-18 19:58 35.399306 -107.314351 122 16276ft 352kts
01-Aug-18 19:59 35.348345 -107.217363 120 14866ft 330kts
01-Aug-18 20:00 35.299955 -107.122689 120 13474ft 325kts
01-Aug-18 20:01 35.239090 -107.042769 136 11954ft 321kts
01-Aug-18 20:02 35.175427 -106.971528 134 10379ft 309kts
01-Aug-18 20:03 35.116434 -106.901431 132 8992ft 274kts
01-Aug-18 20:04 35.065075 -106.841449 123 8891ft 249kts
01-Aug-18 20:05 35.044679 -106.769036 92 7720ft 208kts
01-Aug-18 20:06 35.044997 -106.708990 85 6859ft 155kts
01-Aug-18 20:07 35.044500 -106.660976 88 6059ft 140kts
01-Aug-18 20:08 35.044301 -106.615501 88 5317ft 128kts
01-Aug-18 20:09 35.044934 -106.596840 63 5325ft 13kts
01-Aug-18 20:10 35.045833 -106.598739 263 5323ft 15kts
01-Aug-18 20:11 35.045780 -106.605297 269 5322ft 21kts
01-Aug-18 20:12 35.045832 -106.612621 270 5318ft 20kts
01-Aug-18 20:13 35.046302 -106.616396 340 5313ft 7kts
01-Aug-18 20:14 35.046921 -106.616383 11 5312ft 0kts
01-Aug-18 20:15 35.046921 -106.616383 11 5312ft 0kts

Navigation Log

Ident Type
Flight plan parsing failed, navigation log unavailable